Arthur, Illinois
Current Conditions -  °F | °C
As of 2:05 PM on Monday 22 Dec 2014 (Local Time) from KMTO Reporting Station
Light Rain Light Rain  
Wind Chill: 39°   Ceiling: 500
Heat Index: 44°   Visibility: 3mi
Dew Point: 42°   Wind: 10mph
Humidity: 93%   Direction: 140°SE
Pressure: 29.66"   Gusts: NA
Location:  39.71°N, 88.47°W
Report Text: KMTO 222005Z AUTO 14009KT 3SM -RA BR OVC005 07/06 A2966 RMK AO2 P0000 T00670056
Loading
Personal Weather Stations






























Interactive Weather Map New forecast layout! Learn more

10-Day Weather Forecast

Advertisements
Track Severe Weather on mobile